createdAt,value
2024-05-09T00:00:47.341Z,77.12
2024-05-09T00:03:16.023Z,77.67
2024-05-09T00:05:44.908Z,77.48
2024-05-09T00:08:13.905Z,77.56
2024-05-09T00:10:42.471Z,77.63
2024-05-09T00:13:11.566Z,78.04
2024-05-09T00:15:42.162Z,77.82
2024-05-09T00:18:10.732Z,77.39
2024-05-09T00:20:41.181Z,77.90
2024-05-09T00:23:10.608Z,77.87
2024-05-09T00:25:39.740Z,78.07
2024-05-09T00:28:08.484Z,77.81
2024-05-09T00:30:37.574Z,78.16
2024-05-09T00:33:10.333Z,77.88
2024-05-09T00:35:42.565Z,77.64
2024-05-09T00:38:11.656Z,77.97
2024-05-09T00:40:42.677Z,77.83
2024-05-09T00:43:13.714Z,77.62
2024-05-09T00:45:43.981Z,77.62
2024-05-09T00:48:18.859Z,77.76
2024-05-09T00:50:55.206Z,78.19
2024-05-09T00:53:23.760Z,78.01
2024-05-09T00:55:54.501Z,78.21
2024-05-09T00:58:25.582Z,78.90
2024-05-09T01:00:54.354Z,78.81
2024-05-09T01:03:25.191Z,78.88
2024-05-09T01:05:53.815Z,79.00
2024-05-09T01:08:22.369Z,78.81
2024-05-09T01:10:50.966Z,78.83
2024-05-09T01:13:19.519Z,78.57
2024-05-09T01:15:49.609Z,78.83
2024-05-09T01:18:18.456Z,78.64
2024-05-09T01:20:49.144Z,78.37
2024-05-09T01:23:19.717Z,78.53
2024-05-09T01:25:48.283Z,79.21
2024-05-09T01:28:17.075Z,79.12
2024-05-09T01:30:45.549Z,79.71
2024-05-09T01:33:14.519Z,79.12
2024-05-09T01:35:43.481Z,79.14
2024-05-09T01:38:12.684Z,79.57
2024-05-09T01:40:44.315Z,79.26
2024-05-09T01:43:12.844Z,79.12
2024-05-09T01:45:44.411Z,79.26
2024-05-09T01:48:12.996Z,79.42
2024-05-09T01:50:43.149Z,79.36
2024-05-09T01:53:13.735Z,79.37
2024-05-09T01:55:47.901Z,79.20
2024-05-09T01:58:16.334Z,79.39
2024-05-09T02:00:45.020Z,79.84
2024-05-09T02:03:17.730Z,79.76
2024-05-09T02:05:47.873Z,80.12
2024-05-09T02:08:18.685Z,79.83
2024-05-09T02:10:50.852Z,79.78
2024-05-09T02:13:19.603Z,80.17
2024-05-09T02:15:51.595Z,80.21
2024-05-09T02:18:20.216Z,80.29
2024-05-09T02:20:49.737Z,80.00
2024-05-09T02:23:21.283Z,80.12
2024-05-09T02:25:51.909Z,79.84
2024-05-09T02:28:22.330Z,79.93
2024-05-09T02:30:53.808Z,80.41
2024-05-09T02:33:22.617Z,80.54
2024-05-09T02:35:49.208Z,80.36
2024-05-09T02:38:17.771Z,80.28
2024-05-09T02:40:44.331Z,80.68
2024-05-09T02:43:15.092Z,80.59
2024-05-09T02:45:41.926Z,81.04
2024-05-09T02:48:13.366Z,80.67
2024-05-09T02:50:41.154Z,80.51
2024-05-09T02:53:10.321Z,80.36
2024-05-09T02:55:37.833Z,80.85
2024-05-09T02:58:06.719Z,80.79
2024-05-09T03:00:39.745Z,80.49
2024-05-09T03:03:13.285Z,80.42
2024-05-09T03:05:42.003Z,80.49
2024-05-09T03:08:11.057Z,81.18
2024-05-09T03:10:39.011Z,81.09
2024-05-09T03:13:09.404Z,80.48
2024-05-09T03:15:37.851Z,80.89
2024-05-09T03:18:07.630Z,80.74
2024-05-09T03:20:37.000Z,81.40
2024-05-09T03:23:10.179Z,80.85
2024-05-09T03:25:36.958Z,81.00
2024-05-09T03:28:05.844Z,81.41
2024-05-09T03:30:39.953Z,81.16
2024-05-09T03:33:17.720Z,81.56
2024-05-09T03:35:45.965Z,81.52
2024-05-09T03:38:17.430Z,81.22
2024-05-09T03:40:47.245Z,81.45
2024-05-09T03:43:16.507Z,81.27
2024-05-09T03:45:43.068Z,81.42
2024-05-09T03:48:15.275Z,81.61
2024-05-09T03:50:41.979Z,81.69
2024-05-09T03:53:12.536Z,81.78
2024-05-09T03:55:39.132Z,82.24
2024-05-09T03:58:07.981Z,82.02
2024-05-09T04:00:38.397Z,82.12
2024-05-09T04:03:11.076Z,81.97
2024-05-09T04:05:42.482Z,82.32
2024-05-09T04:08:12.241Z,81.66
2024-05-09T04:10:38.725Z,82.22
2024-05-09T04:13:07.318Z,81.89
2024-05-09T04:15:35.087Z,82.67
2024-05-09T04:18:06.338Z,82.13
2024-05-09T04:20:38.386Z,82.65
2024-05-09T04:23:13.864Z,82.53
2024-05-09T04:25:42.647Z,82.27
2024-05-09T04:28:11.237Z,82.62
2024-05-09T04:30:40.449Z,82.00
2024-05-09T04:33:13.033Z,82.54
2024-05-09T04:35:41.340Z,82.23
2024-05-09T04:38:12.361Z,82.73
2024-05-09T04:40:38.900Z,82.57
2024-05-09T04:43:09.250Z,82.69
2024-05-09T04:45:35.999Z,82.55
2024-05-09T04:48:04.737Z,82.26
2024-05-09T04:50:36.890Z,82.23
2024-05-09T04:53:08.769Z,82.32
2024-05-09T04:55:40.134Z,82.28
2024-05-09T04:58:09.893Z,82.79
2024-05-09T05:00:38.538Z,82.96
2024-05-09T05:03:12.338Z,83.29
2024-05-09T05:05:41.678Z,83.10
2024-05-09T05:08:13.696Z,83.05
2024-05-09T05:10:43.162Z,83.05
2024-05-09T05:13:22.232Z,82.98
2024-05-09T05:15:50.473Z,83.38
2024-05-09T05:18:19.425Z,83.31
2024-05-09T05:20:46.274Z,82.97
2024-05-09T05:23:16.780Z,83.32
2024-05-09T05:25:49.841Z,82.92
2024-05-09T05:28:18.918Z,82.80
2024-05-09T05:30:45.850Z,82.39
2024-05-09T05:33:15.691Z,82.77
2024-05-09T05:35:42.543Z,82.61
2024-05-09T05:38:11.834Z,82.29
2024-05-09T05:40:39.631Z,82.83
2024-05-09T05:43:17.116Z,82.95
2024-05-09T05:45:43.746Z,83.11
2024-05-09T05:48:12.492Z,82.37
2024-05-09T05:50:39.152Z,82.76
2024-05-09T05:53:10.094Z,82.22
2024-05-09T05:55:38.146Z,82.07
2024-05-09T05:58:07.064Z,81.73
2024-05-09T06:00:38.986Z,81.55
2024-05-09T06:03:10.147Z,81.31
2024-05-09T06:05:38.966Z,81.56
2024-05-09T06:08:08.549Z,80.80
2024-05-09T06:10:39.098Z,81.10
2024-05-09T06:13:09.825Z,80.84
2024-05-09T06:15:38.291Z,80.70
2024-05-09T06:18:07.549Z,80.31
2024-05-09T06:20:36.895Z,79.57
2024-05-09T06:23:07.209Z,79.88
2024-05-09T06:25:33.757Z,79.23
2024-05-09T06:28:02.111Z,79.19
2024-05-09T06:30:37.120Z,78.79
2024-05-09T06:33:12.985Z,79.07
2024-05-09T06:35:41.733Z,78.88
2024-05-09T06:38:10.611Z,78.86
2024-05-09T06:40:40.533Z,78.60
2024-05-09T06:43:12.613Z,78.44
2024-05-09T06:45:39.156Z,78.32
2024-05-09T06:48:10.812Z,77.58
2024-05-09T06:50:39.085Z,77.25
2024-05-09T06:53:08.930Z,76.37
2024-05-09T06:55:35.861Z,76.50
2024-05-09T06:58:05.553Z,76.82
2024-05-09T07:00:38.593Z,76.01
2024-05-09T07:03:13.068Z,75.25
2024-05-09T07:05:47.701Z,75.18
2024-05-09T07:08:15.727Z,75.44
2024-05-09T07:10:44.474Z,75.42
2024-05-09T07:13:11.682Z,75.16
2024-05-09T07:15:40.467Z,75.57
2024-05-09T07:18:14.971Z,74.88
2024-05-09T07:20:43.696Z,75.41
2024-05-09T07:23:11.021Z,75.10
2024-05-09T07:25:40.226Z,74.91
2024-05-09T07:28:10.528Z,74.98
2024-05-09T07:30:38.973Z,74.84
2024-05-09T07:33:05.818Z,74.32
2024-05-09T07:35:36.770Z,74.35
2024-05-09T07:38:03.505Z,74.59
2024-05-09T07:40:36.140Z,74.33
2024-05-09T07:43:03.833Z,73.67
2024-05-09T07:52:23.298Z,71.05
2024-05-09T07:53:38.904Z,68.45
2024-05-09T07:56:10.428Z,67.27
2024-05-09T07:58:38.825Z,65.27
2024-05-09T08:01:07.441Z,64.27
2024-05-09T08:03:36.114Z,64.43
2024-05-09T08:06:02.854Z,64.48
2024-05-09T08:08:33.393Z,63.12
2024-05-09T08:11:02.915Z,63.05
2024-05-09T08:13:31.512Z,62.68
2024-05-09T08:15:58.224Z,60.69
2024-05-09T08:18:29.605Z,60.73
2024-05-09T08:20:56.440Z,60.25
2024-05-09T08:23:25.171Z,59.46
2024-05-09T08:25:53.737Z,58.60
2024-05-09T08:28:22.487Z,58.49
2024-05-09T08:30:49.158Z,58.14
2024-05-09T08:33:17.979Z,57.96
2024-05-09T08:35:44.564Z,55.52
2024-05-09T08:38:13.160Z,54.80
2024-05-09T08:40:41.128Z,55.37
2024-05-09T08:43:12.875Z,56.06
2024-05-09T08:45:41.538Z,56.96
2024-05-09T08:48:10.365Z,56.92
2024-05-09T08:50:40.504Z,54.99
2024-05-09T08:53:09.624Z,55.00
2024-05-09T08:55:39.238Z,55.76
2024-05-09T08:58:16.449Z,55.09
2024-05-09T09:00:44.405Z,53.82
2024-05-09T09:03:18.510Z,53.65
2024-05-09T09:05:50.628Z,54.28
2024-05-09T09:08:21.735Z,54.59
2024-05-09T09:10:48.613Z,53.69
2024-05-09T09:13:19.251Z,54.17
2024-05-09T09:15:46.719Z,53.06
2024-05-09T09:18:16.531Z,53.75
2024-05-09T09:20:43.419Z,53.45
2024-05-09T09:23:12.034Z,52.32
2024-05-09T09:25:39.280Z,51.53
2024-05-09T09:28:09.108Z,53.53
2024-05-09T09:30:40.793Z,53.34
2024-05-09T09:33:10.969Z,54.45
2024-05-09T09:35:38.938Z,54.09
2024-05-09T09:38:09.432Z,53.40
2024-05-09T09:40:41.006Z,53.45
2024-05-09T09:43:16.609Z,51.76
2024-05-09T09:45:46.449Z,51.29
2024-05-09T09:48:16.488Z,52.31
2024-05-09T09:50:43.532Z,52.45
2024-05-09T09:53:12.268Z,52.15
2024-05-09T09:55:39.589Z,52.44
2024-05-09T09:58:10.842Z,52.58
2024-05-09T10:00:38.947Z,52.23
2024-05-09T10:03:09.855Z,51.84
2024-05-09T10:05:36.837Z,52.27
2024-05-09T10:08:07.663Z,51.27
2024-05-09T10:10:37.723Z,51.84
2024-05-09T10:13:07.114Z,51.42
2024-05-09T10:15:44.734Z,50.84
2024-05-09T10:18:15.697Z,51.10
2024-05-09T10:20:42.546Z,51.27
2024-05-09T10:23:27.298Z,49.27
2024-05-09T10:26:00.476Z,50.56
2024-05-09T10:28:29.247Z,50.99
2024-05-09T10:31:08.674Z,50.21
2024-05-09T10:33:41.087Z,51.14
2024-05-09T10:36:11.547Z,50.70
2024-05-09T10:38:41.521Z,50.10
2024-05-09T10:41:08.517Z,49.33
2024-05-09T10:43:40.528Z,49.60
2024-05-09T10:46:07.408Z,49.99
2024-05-09T10:48:36.454Z,50.10
2024-05-09T10:51:05.338Z,50.08
2024-05-09T10:53:33.896Z,49.80
2024-05-09T10:56:01.327Z,49.90
2024-05-09T10:58:31.032Z,49.01
2024-05-09T11:00:57.939Z,48.89
2024-05-09T11:03:29.810Z,48.63
2024-05-09T11:05:57.094Z,48.37
2024-05-09T11:08:29.434Z,48.26
2024-05-09T11:10:55.843Z,47.81
2024-05-09T11:13:31.198Z,45.60
2024-05-09T11:16:01.941Z,47.06
2024-05-09T11:18:35.110Z,46.08
2024-05-09T11:21:11.422Z,44.86
2024-05-09T11:23:42.285Z,45.99
2024-05-09T11:26:10.054Z,46.28
2024-05-09T11:28:38.655Z,46.22
2024-05-09T11:31:06.208Z,46.57
2024-05-09T11:33:38.133Z,47.11
2024-05-09T11:36:08.086Z,45.13
2024-05-09T11:38:36.945Z,45.09
2024-05-09T11:41:07.640Z,45.85
2024-05-09T11:43:34.176Z,47.07
2024-05-09T11:46:03.606Z,46.50
2024-05-09T11:48:30.956Z,45.22
2024-05-09T11:50:59.657Z,46.22
2024-05-09T11:53:27.451Z,45.04
2024-05-09T11:55:55.964Z,46.11
2024-05-09T11:58:24.489Z,45.37
2024-05-09T12:00:53.110Z,45.16
2024-05-09T12:03:20.119Z,45.19
2024-05-09T12:05:48.773Z,45.04
2024-05-09T12:08:15.348Z,44.54
2024-05-09T12:10:44.081Z,43.95
2024-05-09T12:13:10.700Z,44.93
2024-05-09T12:15:43.442Z,44.51
2024-05-09T12:18:10.040Z,44.57
2024-05-09T12:20:40.074Z,43.74
2024-05-09T12:23:08.913Z,43.62
2024-05-09T12:25:39.045Z,44.84
2024-05-09T12:28:06.391Z,44.76
2024-05-09T12:30:40.473Z,44.62
2024-05-09T12:33:13.922Z,44.05
2024-05-09T12:35:45.411Z,44.69
2024-05-09T12:38:14.193Z,45.19
2024-05-09T12:40:44.042Z,45.76
2024-05-09T12:43:11.424Z,45.77
2024-05-09T12:45:40.926Z,45.69
2024-05-09T12:48:13.481Z,45.02
2024-05-09T12:50:40.565Z,45.69
2024-05-09T12:53:09.292Z,46.06
2024-05-09T12:55:44.085Z,45.98
2024-05-09T12:58:17.947Z,45.92
2024-05-09T13:00:44.822Z,46.21
2024-05-09T13:03:15.847Z,46.61
2024-05-09T13:05:43.926Z,46.44
2024-05-09T13:08:13.190Z,46.53
2024-05-09T13:10:39.881Z,46.71
2024-05-09T13:13:08.586Z,46.64
2024-05-09T13:15:38.144Z,46.74
2024-05-09T13:18:10.464Z,46.99
2024-05-09T13:20:39.051Z,46.96
2024-05-09T13:23:08.920Z,47.33
2024-05-09T13:25:37.892Z,47.40
2024-05-09T13:28:07.896Z,47.50
2024-05-09T13:30:40.785Z,46.72
2024-05-09T13:33:12.133Z,46.55
2024-05-09T13:35:45.737Z,46.01
2024-05-09T13:38:18.145Z,45.70
2024-05-09T13:40:45.149Z,45.49
2024-05-09T13:43:14.081Z,45.74
2024-05-09T13:45:40.642Z,45.60
2024-05-09T13:48:09.904Z,44.87
2024-05-09T13:50:37.208Z,44.87
2024-05-09T13:53:08.931Z,45.08
2024-05-09T13:55:37.590Z,44.74
2024-05-09T13:58:06.694Z,44.74
2024-05-09T14:00:43.901Z,44.71
2024-05-09T14:03:18.407Z,44.61
2024-05-09T14:05:46.692Z,44.89
2024-05-09T14:08:18.944Z,44.21
2024-05-09T14:10:46.137Z,44.41
2024-05-09T14:13:14.949Z,43.86
2024-05-09T14:15:41.572Z,43.37
2024-05-09T14:18:13.157Z,43.40
2024-05-09T14:20:40.879Z,43.54
2024-05-09T14:23:09.577Z,43.79
2024-05-09T14:25:41.778Z,43.22
2024-05-09T14:28:14.696Z,43.46
2024-05-09T14:30:41.490Z,42.91
2024-05-09T14:33:10.560Z,42.75
2024-05-09T14:35:37.930Z,43.53
2024-05-09T14:38:09.359Z,43.23
2024-05-09T14:40:42.457Z,43.07
2024-05-09T14:43:21.616Z,43.62
2024-05-09T14:45:48.104Z,43.52
2024-05-09T14:48:19.175Z,44.09
2024-05-09T14:50:47.687Z,44.15
2024-05-09T14:53:14.253Z,44.33
2024-05-09T14:55:44.804Z,44.15
2024-05-09T14:58:11.904Z,44.32
2024-05-09T15:00:46.149Z,43.75
2024-05-09T15:03:16.555Z,44.30
2024-05-09T15:05:45.507Z,44.05
2024-05-09T15:08:12.283Z,44.26
2024-05-09T15:10:41.083Z,44.58
2024-05-09T15:13:11.408Z,44.44
2024-05-09T15:15:50.079Z,44.20
2024-05-09T15:18:16.794Z,44.21
2024-05-09T15:20:46.127Z,43.96
2024-05-09T15:23:12.929Z,44.35
2024-05-09T15:25:43.678Z,44.56
2024-05-09T15:28:15.255Z,44.06
2024-05-09T15:30:46.242Z,44.25
2024-05-09T15:33:13.719Z,44.42
2024-05-09T15:35:42.616Z,44.52
2024-05-09T15:38:09.563Z,44.92
2024-05-09T15:40:40.493Z,45.10
2024-05-09T15:43:08.858Z,44.85
2024-05-09T15:45:42.868Z,44.65
2024-05-09T15:48:10.103Z,44.33
2024-05-09T15:50:41.556Z,44.33
2024-05-09T15:53:10.551Z,44.48
2024-05-09T15:55:39.429Z,44.97
2024-05-09T15:58:07.099Z,44.95
2024-05-09T16:00:40.052Z,44.93
2024-05-09T16:03:14.702Z,45.02
2024-05-09T16:05:47.141Z,44.97
2024-05-09T16:08:14.040Z,45.33
2024-05-09T16:10:45.621Z,45.36
2024-05-09T16:13:13.306Z,45.62
2024-05-09T16:15:42.090Z,45.41
2024-05-09T16:18:10.700Z,45.66
2024-05-09T16:20:41.689Z,45.12
2024-05-09T16:23:10.004Z,44.99
2024-05-09T16:25:38.707Z,44.75
2024-05-09T16:28:08.762Z,45.12
2024-05-09T16:30:39.619Z,44.77
2024-05-09T16:33:06.665Z,45.03
2024-05-09T16:35:37.483Z,45.04
2024-05-09T16:38:05.285Z,45.04
2024-05-09T16:40:38.681Z,45.21
2024-05-09T16:43:07.869Z,45.51
2024-05-09T16:45:37.094Z,45.18
2024-05-09T16:48:04.757Z,45.41
2024-05-09T16:50:35.356Z,45.27
2024-05-09T16:53:05.741Z,45.35
2024-05-09T16:55:35.159Z,45.54
2024-05-09T16:58:02.581Z,45.87
2024-05-09T17:00:39.955Z,45.54
2024-05-09T17:03:10.616Z,45.85
2024-05-09T17:05:40.225Z,46.38
2024-05-09T17:08:09.166Z,45.94
2024-05-09T17:10:37.782Z,46.25
2024-05-09T17:13:09.426Z,46.14
2024-05-09T17:15:38.158Z,46.73
2024-05-09T17:18:07.698Z,46.88
2024-05-09T17:20:36.725Z,46.84
2024-05-09T17:23:11.709Z,47.16
2024-05-09T17:25:40.318Z,46.88
2024-05-09T17:28:08.983Z,46.86
2024-05-09T17:30:38.165Z,47.29
2024-05-09T17:33:10.235Z,46.97
2024-05-09T17:35:37.908Z,47.42
2024-05-09T17:38:09.729Z,47.15
2024-05-09T17:40:38.043Z,47.40
2024-05-09T17:43:10.854Z,47.51
2024-05-09T17:45:37.964Z,47.90
2024-05-09T17:48:07.129Z,47.93
2024-05-09T17:50:36.273Z,47.83
2024-05-09T17:53:06.832Z,47.90
2024-05-09T17:55:33.897Z,48.17
2024-05-09T17:58:04.738Z,48.12
2024-05-09T18:00:38.964Z,48.26
2024-05-09T18:03:12.125Z,48.51
2024-05-09T18:05:40.219Z,48.94
2024-05-09T18:08:09.738Z,49.20
2024-05-09T18:10:39.408Z,49.36
2024-05-09T18:13:09.813Z,49.68
2024-05-09T18:15:39.043Z,49.95
2024-05-09T18:18:08.370Z,50.20
2024-05-09T18:20:42.302Z,50.49
2024-05-09T18:23:16.106Z,50.66
2024-05-09T18:25:44.012Z,50.63
2024-05-09T18:28:12.642Z,50.50
2024-05-09T18:30:43.837Z,50.73
2024-05-09T18:33:12.809Z,51.11
2024-05-09T18:35:41.745Z,51.30
2024-05-09T18:38:10.822Z,51.61
2024-05-09T18:40:38.542Z,51.76
2024-05-09T18:43:09.248Z,51.96
2024-05-09T18:45:37.494Z,52.20
2024-05-09T18:48:10.466Z,52.58
2024-05-09T18:50:40.153Z,52.53
2024-05-09T18:53:11.354Z,53.26
2024-05-09T18:55:38.986Z,53.35
2024-05-09T18:58:10.106Z,53.76
2024-05-09T19:00:41.433Z,53.98
2024-05-09T19:03:15.359Z,54.24
2024-05-09T19:05:43.705Z,54.59
2024-05-09T19:08:14.029Z,54.98
2024-05-09T19:10:40.792Z,55.20
2024-05-09T19:13:12.613Z,55.56
2024-05-09T19:15:43.234Z,55.58
2024-05-09T19:18:15.436Z,56.10
2024-05-09T19:20:42.292Z,56.26
2024-05-09T19:23:10.980Z,56.49
2024-05-09T19:25:37.395Z,56.84
2024-05-09T19:28:06.637Z,56.80
2024-05-09T19:30:39.024Z,57.29
2024-05-09T19:33:14.190Z,57.49
2024-05-09T19:35:43.284Z,57.71
2024-05-09T19:38:17.129Z,58.04
2024-05-09T19:40:46.662Z,58.49
2024-05-09T19:43:15.890Z,58.39
2024-05-09T19:45:42.965Z,59.16
2024-05-09T19:48:11.595Z,59.53
2024-05-09T19:50:43.063Z,59.43
2024-05-09T19:53:15.641Z,59.98
2024-05-09T19:55:43.791Z,59.98
2024-05-09T19:58:12.969Z,60.25
2024-05-09T20:00:42.210Z,60.28
2024-05-09T20:03:13.426Z,61.06
2024-05-09T20:05:41.741Z,61.11
2024-05-09T20:08:10.227Z,61.10
2024-05-09T20:10:38.747Z,61.27
2024-05-09T20:13:08.181Z,61.43
2024-05-09T20:15:35.904Z,61.88
2024-05-09T20:18:04.957Z,61.70
2024-05-09T20:20:37.969Z,62.04
2024-05-09T20:23:10.274Z,62.19
2024-05-09T20:25:39.116Z,62.13
2024-05-09T20:28:10.267Z,62.39
2024-05-09T20:30:37.180Z,62.48
2024-05-09T20:33:08.240Z,62.43
2024-05-09T20:35:35.779Z,62.76
2024-05-09T20:38:04.533Z,65.91
2024-05-09T20:40:35.234Z,63.01
2024-05-09T20:43:09.733Z,62.53
2024-05-09T20:45:36.925Z,62.83
2024-05-09T20:48:06.145Z,63.10
2024-05-09T20:50:38.452Z,63.27
2024-05-09T20:53:10.481Z,63.47
2024-05-09T20:55:39.945Z,63.96
2024-05-09T20:58:10.845Z,64.07
2024-05-09T21:00:41.117Z,64.23
2024-05-09T21:03:12.937Z,67.04
2024-05-09T21:05:40.561Z,64.79
2024-05-09T21:08:09.710Z,64.98
2024-05-09T21:10:36.981Z,65.11
2024-05-09T21:13:07.148Z,64.67
2024-05-09T21:15:36.480Z,65.08
2024-05-09T21:18:05.509Z,65.18
2024-05-09T21:20:33.780Z,65.56
2024-05-09T21:23:04.776Z,65.77
2024-05-09T21:25:31.482Z,65.95
2024-05-09T21:28:00.470Z,66.24
2024-05-09T21:30:33.073Z,66.36
2024-05-09T21:33:13.079Z,66.65
2024-05-09T21:35:44.523Z,66.94
2024-05-09T21:38:17.622Z,67.39
2024-05-09T21:40:44.435Z,67.74
2024-05-09T21:43:13.656Z,67.54
2024-05-09T21:45:40.344Z,67.47
2024-05-09T21:48:13.749Z,68.35
2024-05-09T21:50:42.265Z,68.34
2024-05-09T21:53:11.932Z,68.73
2024-05-09T21:55:38.803Z,68.33
2024-05-09T21:58:07.320Z,68.17
2024-05-09T22:00:37.846Z,69.39
2024-05-09T22:03:13.415Z,69.88
2024-05-09T22:05:42.811Z,69.54
2024-05-09T22:08:11.415Z,69.92
2024-05-09T22:10:37.952Z,69.46
2024-05-09T22:13:06.986Z,70.63
2024-05-09T22:15:34.855Z,69.19
2024-05-09T22:18:03.632Z,69.14
2024-05-09T22:20:38.268Z,69.64
2024-05-09T22:23:08.763Z,69.85
2024-05-09T22:25:35.597Z,69.99
2024-05-09T22:28:04.674Z,69.90
2024-05-09T22:30:36.050Z,69.74
2024-05-09T22:33:08.294Z,69.90
2024-05-09T22:35:37.998Z,70.00
2024-05-09T22:38:06.815Z,70.54
2024-05-09T22:40:42.840Z,70.19
2024-05-09T22:43:19.252Z,70.37
2024-05-09T22:45:46.388Z,70.70
2024-05-09T22:48:15.558Z,70.71
2024-05-09T22:50:44.558Z,70.91
2024-05-09T22:53:13.056Z,70.72
2024-05-09T22:55:39.487Z,70.54
2024-05-09T22:58:08.224Z,70.78
2024-05-09T23:00:35.186Z,71.02
2024-05-09T23:03:04.448Z,70.87
2024-05-09T23:05:31.482Z,71.07
2024-05-09T23:08:02.284Z,70.90
2024-05-09T23:10:35.199Z,71.15
2024-05-09T23:13:07.578Z,71.28
2024-05-09T23:15:35.492Z,71.40
2024-05-09T23:18:07.704Z,71.21
2024-05-09T23:20:38.492Z,71.29
2024-05-09T23:23:11.996Z,71.03
2024-05-09T23:25:40.348Z,71.31
2024-05-09T23:28:09.263Z,71.33
2024-05-09T23:30:39.078Z,71.70
2024-05-09T23:33:11.673Z,71.48
2024-05-09T23:35:38.647Z,72.07
2024-05-09T23:38:07.158Z,71.93
2024-05-09T23:40:39.604Z,71.73
2024-05-09T23:43:11.848Z,71.98
2024-05-09T23:45:39.404Z,72.17
2024-05-09T23:48:08.742Z,71.75
2024-05-09T23:50:37.941Z,72.25
2024-05-09T23:53:11.375Z,72.04
2024-05-09T23:55:40.105Z,72.31
2024-05-09T23:58:09.300Z,72.31
